Time;durP1;ratioP1;P1;durP2;ratioP2;P2;SDS_P1;SDS_P2;PMS_P1;PMS_P2;Temp;Humidity;BMP_temperature;BMP_pressure;BME280_temperature;BME280_humidity;BME280_pressure;Samples;Min_cycle;Max_cycle;Signal;HPM_P1;HPM_P2
2021/04/06 00:00:45;;;;;;;6.65;0.85;;;2.20;99.90;;;;;;5091676;28;20051;-70
2021/04/06 00:03:17;;;;;;;8.45;0.47;;;2.20;99.90;;;;;;5090788;28;20104;-71
2021/04/06 00:05:48;;;;;;;5.88;0.60;;;2.20;99.90;;;;;;5092096;28;20028;-70
2021/04/06 00:08:15;;;;;;;7.35;0.68;;;2.20;99.90;;;;;;5092511;28;20032;-70
2021/04/06 00:10:51;;;;;;;5.93;0.75;;;2.20;99.90;;;;;;5090777;28;20074;-70
2021/04/06 00:13:17;;;;;;;5.57;0.60;;;2.20;99.90;;;;;;5092771;28;20082;-70
2021/04/06 00:15:45;;;;;;;7.60;0.88;;;2.30;99.90;;;;;;5087696;28;20043;-70
2021/04/06 00:18:14;;;;;;;9.10;1.10;;;2.20;99.90;;;;;;5091273;28;20043;-70
2021/04/06 00:20:41;;;;;;;7.22;1.75;;;2.20;99.90;;;;;;5090494;28;20048;-70
2021/04/06 00:23:09;;;;;;;9.48;1.15;;;2.10;99.90;;;;;;5090418;28;20044;-70
2021/04/06 00:25:38;;;;;;;6.05;1.00;;;2.10;99.90;;;;;;5091707;28;20052;-71
2021/04/06 00:28:12;;;;;;;9.13;1.48;;;2.10;99.90;;;;;;5091351;28;20426;-71
2021/04/06 00:30:41;;;;;;;6.63;1.13;;;2.10;99.90;;;;;;5088455;28;20129;-71
2021/04/06 00:33:35;;;;;;;12.35;1.08;;;2.10;99.90;;;;;;5087647;28;20051;-71
2021/04/06 00:36:03;;;;;;;9.32;1.33;;;2.10;99.90;;;;;;5087093;28;20048;-71
2021/04/06 00:38:43;;;;;;;8.55;1.00;;;2.00;99.90;;;;;;5088929;28;20059;-70
2021/04/06 00:41:12;;;;;;;10.65;1.63;;;2.10;99.90;;;;;;5089468;28;20088;-71
2021/04/06 00:43:41;;;;;;;6.18;0.70;;;2.10;99.90;;;;;;5088969;28;20044;-70
2021/04/06 00:46:15;;;;;;;5.85;1.08;;;2.10;99.90;;;;;;5087619;28;20053;-70
2021/04/06 00:48:43;;;;;;;9.98;1.10;;;2.10;99.90;;;;;;5087431;28;20066;-71
2021/04/06 00:51:18;;;;;;;7.90;1.00;;;2.10;99.90;;;;;;5087674;28;20555;-71
2021/04/06 00:54:09;;;;;;;5.80;0.80;;;2.10;99.90;;;;;;5086874;28;20118;-70
2021/04/06 00:56:37;;;;;;;10.25;1.08;;;2.10;99.90;;;;;;5081014;28;20143;-70
2021/04/06 00:59:08;;;;;;;7.57;0.82;;;2.10;99.90;;;;;;5089907;28;20040;-71
2021/04/06 01:02:08;;;;;;;6.53;1.27;;;2.10;99.90;;;;;;5088692;28;20588;-70
2021/04/06 01:04:38;;;;;;;10.25;0.93;;;2.10;99.90;;;;;;5055941;28;20123;-71
2021/04/06 01:07:16;;;;;;;5.55;1.00;;;2.00;99.90;;;;;;5087334;28;20110;-71
2021/04/06 01:09:47;;;;;;;11.27;1.55;;;2.10;99.90;;;;;;5087850;28;20049;-70
2021/04/06 01:12:18;;;;;;;8.77;0.90;;;2.00;99.90;;;;;;5087975;28;20043;-70
2021/04/06 01:14:48;;;;;;;13.40;1.10;;;2.10;99.90;;;;;;5088349;28;20101;-70
2021/04/06 01:17:22;;;;;;;10.05;1.00;;;2.90;99.90;;;;;;5088133;28;20040;-70
2021/04/06 01:19:49;;;;;;;17.42;2.13;;;2.10;99.90;;;;;;5084530;28;20073;-71
2021/04/06 01:22:17;;;;;;;7.65;0.80;;;2.10;99.90;;;;;;5086627;28;20062;-70
2021/04/06 01:24:43;;;;;;;11.60;1.55;;;2.10;99.90;;;;;;5088363;28;20056;-70
2021/04/06 01:27:13;;;;;;;8.80;1.60;;;2.10;99.90;;;;;;5083334;28;20043;-70
2021/04/06 01:29:46;;;;;;;9.38;1.30;;;2.10;99.90;;;;;;5084829;28;20098;-70
2021/04/06 01:32:13;;;;;;;13.85;1.02;;;2.10;99.90;;;;;;5088746;28;20067;-71
2021/04/06 01:34:40;;;;;;;11.50;1.33;;;2.10;99.90;;;;;;5088193;28;20032;-70
2021/04/06 01:37:06;;;;;;;9.63;1.15;;;2.10;99.90;;;;;;5084801;28;20405;-70
2021/04/06 01:39:33;;;;;;;12.85;1.48;;;2.10;99.90;;;;;;5087734;28;20127;-71
2021/04/06 01:42:03;;;;;;;11.50;1.90;;;2.10;99.90;;;;;;5088247;28;20028;-71
2021/04/06 01:44:30;;;;;;;12.52;1.75;;;2.70;99.90;;;;;;5086790;28;20035;-70
2021/04/06 01:46:56;;;;;;;9.57;0.80;;;2.10;99.90;;;;;;5088109;28;20040;-69
2021/04/06 01:49:24;;;;;;;6.68;1.17;;;2.00;99.90;;;;;;5088554;28;20036;-70
2021/04/06 01:51:55;;;;;;;6.78;1.20;;;2.10;99.90;;;;;;5084717;28;20061;-71
2021/04/06 01:54:24;;;;;;;14.50;1.30;;;2.10;99.90;;;;;;5088235;28;20046;-70
2021/04/06 01:56:53;;;;;;;12.23;1.10;;;2.10;99.90;;;;;;5087945;28;20548;-71
2021/04/06 01:59:23;;;;;;;9.40;1.23;;;2.20;99.90;;;;;;5087641;28;20127;-71
2021/04/06 02:01:54;;;;;;;7.13;0.95;;;2.20;99.90;;;;;;5086038;28;20131;-70
2021/04/06 02:04:22;;;;;;;11.65;1.58;;;2.20;99.90;;;;;;5085278;28;20036;-71
2021/04/06 02:06:49;;;;;;;12.88;1.30;;;2.20;99.90;;;;;;5087821;28;20106;-70
2021/04/06 02:09:17;;;;;;;9.73;1.90;;;2.10;99.90;;;;;;5088298;28;20045;-70
2021/04/06 02:11:45;;;;;;;13.88;1.33;;;2.10;99.90;;;;;;5084372;28;20040;-70
2021/04/06 02:14:13;;;;;;;7.60;1.30;;;2.20;99.90;;;;;;5087903;28;20057;-70
2021/04/06 02:16:55;;;;;;;7.50;0.95;;;2.20;99.90;;;;;;5085706;28;20036;-71
2021/04/06 02:19:28;;;;;;;18.73;1.92;;;2.10;99.90;;;;;;5089840;28;20043;-70
2021/04/06 02:21:54;;;;;;;13.05;2.10;;;2.10;99.90;;;;;;5089916;28;20032;-70
2021/04/06 02:24:46;;;;;;;11.57;1.52;;;2.10;99.90;;;;;;5082090;28;20032;-71
2021/04/06 02:27:21;;;;;;;13.73;2.25;;;2.10;99.90;;;;;;5089322;28;20074;-70
2021/04/06 02:29:55;;;;;;;15.50;2.22;;;2.10;99.90;;;;;;5086466;28;20041;-71
2021/04/06 02:32:22;;;;;;;15.27;2.25;;;1.90;99.90;;;;;;5087051;28;20493;-71
2021/04/06 02:34:50;;;;;;;14.65;2.22;;;1.80;99.90;;;;;;5091458;28;20036;-70
2021/04/06 02:37:42;;;;;;;11.38;1.52;;;1.80;99.90;;;;;;5089373;28;20138;-71
2021/04/06 02:40:10;;;;;;;17.35;2.50;;;1.80;99.90;;;;;;5081834;28;20047;-70
2021/04/06 02:42:40;;;;;;;15.25;2.38;;;1.80;99.90;;;;;;5087695;28;20620;-71
2021/04/06 02:45:19;;;;;;;19.05;2.35;;;1.90;99.90;;;;;;5090911;28;20044;-70
2021/04/06 02:48:09;;;;;;;22.83;3.10;;;1.90;99.90;;;;;;5090160;28;20044;-70
2021/04/06 02:50:36;;;;;;;19.33;2.35;;;1.80;99.90;;;;;;5090620;28;20036;-71
2021/04/06 02:53:07;;;;;;;20.50;2.63;;;1.80;99.90;;;;;;5091277;28;20517;-70
2021/04/06 02:55:33;;;;;;;18.05;2.65;;;1.80;99.90;;;;;;5073656;28;20079;-70
2021/04/06 02:57:59;;;;;;;20.55;2.78;;;1.90;99.90;;;;;;5090930;28;20044;-70
2021/04/06 03:00:27;;;;;;;24.02;3.80;;;1.90;99.90;;;;;;5090593;28;20040;-70
2021/04/06 03:02:58;;;;;;;17.20;3.08;;;1.90;99.90;;;;;;5088679;28;20048;-71
2021/04/06 03:05:28;;;;;;;19.88;2.80;;;1.80;99.90;;;;;;5091660;28;20040;-70
2021/04/06 03:07:54;;;;;;;25.60;2.92;;;1.80;99.90;;;;;;5091398;28;20441;-70
2021/04/06 03:10:20;;;;;;;22.92;3.08;;;1.90;99.90;;;;;;5089586;28;20063;-71
2021/04/06 03:12:48;;;;;;;23.65;4.50;;;1.80;99.90;;;;;;5090459;28;20047;-70
2021/04/06 03:15:23;;;;;;;21.85;2.78;;;1.80;99.90;;;;;;5088895;28;20123;-71
2021/04/06 03:17:54;;;;;;;19.55;2.53;;;1.80;99.90;;;;;;5091227;28;20409;-70
2021/04/06 03:20:21;;;;;;;18.27;3.13;;;1.90;99.90;;;;;;5090793;28;20040;-70
2021/04/06 03:22:48;;;;;;;17.77;3.05;;;1.80;99.90;;;;;;5090653;28;20048;-69
2021/04/06 03:25:18;;;;;;;17.85;2.60;;;2.00;99.90;;;;;;5090907;28;20036;-72
2021/04/06 03:27:49;;;;;;;28.70;2.88;;;1.80;99.90;;;;;;5090381;28;20054;-69
2021/04/06 03:30:34;;;;;;;23.80;4.07;;;1.90;99.90;;;;;;5089536;28;20044;-71
2021/04/06 03:33:11;;;;;;;28.00;3.60;;;1.90;99.90;;;;;;5101741;28;20048;-69
2021/04/06 03:35:40;;;;;;;20.30;3.40;;;1.90;99.90;;;;;;5090366;28;20036;-70
2021/04/06 03:38:08;;;;;;;19.10;3.42;;;1.90;99.90;;;;;;5090230;28;20059;-69
2021/04/06 03:40:39;;;;;;;20.55;2.55;;;1.90;99.90;;;;;;5091328;28;20125;-70
2021/04/06 03:43:15;;;;;;;20.17;2.75;;;1.90;99.90;;;;;;5088358;28;20040;-70
2021/04/06 03:45:59;;;;;;;19.70;2.83;;;1.90;99.90;;;;;;5089658;28;20555;-70
2021/04/06 03:48:40;;;;;;;21.63;3.60;;;1.90;99.90;;;;;;5089738;28;20028;-70
2021/04/06 03:51:23;;;;;;;24.98;3.53;;;1.90;99.90;;;;;;5092660;28;20036;-70
2021/04/06 03:53:50;;;;;;;17.95;2.47;;;1.90;99.90;;;;;;5121106;27;20043;-70
2021/04/06 03:56:16;;;;;;;19.70;2.70;;;1.90;99.90;;;;;;5092979;28;20489;-70
2021/04/06 03:58:45;;;;;;;23.58;3.17;;;1.90;99.90;;;;;;5093461;28;20047;-70
2021/04/06 04:01:15;;;;;;;20.90;3.53;;;1.90;99.90;;;;;;5091852;28;20035;-70
2021/04/06 04:03:41;;;;;;;27.42;2.70;;;1.90;99.90;;;;;;5092022;28;20171;-70
2021/04/06 04:06:07;;;;;;;21.48;2.42;;;1.90;99.90;;;;;;5093072;28;20063;-70
2021/04/06 04:08:33;;;;;;;18.10;2.97;;;1.90;99.90;;;;;;5093593;28;20051;-70
2021/04/06 04:10:59;;;;;;;22.48;2.28;;;1.90;99.90;;;;;;5091412;28;20470;-70
2021/04/06 04:13:25;;;;;;;18.85;2.33;;;1.90;99.90;;;;;;5092813;28;20046;-69
2021/04/06 04:15:53;;;;;;;14.15;1.75;;;1.90;99.90;;;;;;5092569;28;20079;-71
2021/04/06 04:18:19;;;;;;;11.10;1.70;;;2.40;99.90;;;;;;5089151;28;20044;-69
2021/04/06 04:20:45;;;;;;;8.48;1.30;;;2.00;99.90;;;;;;5094299;28;20044;-69
2021/04/06 04:23:11;;;;;;;9.05;1.15;;;1.90;99.70;;;;;;5093768;28;20127;-69
2021/04/06 04:25:37;;;;;;;11.02;2.85;;;1.90;99.40;;;;;;5091149;28;20079;-70
2021/04/06 04:28:03;;;;;;;12.75;2.10;;;2.00;99.20;;;;;;5093431;28;20432;-69
2021/04/06 04:30:46;;;;;;;11.98;1.42;;;1.90;99.20;;;;;;5089586;28;20398;-68
2021/04/06 04:33:12;;;;;;;11.20;1.55;;;1.90;99.40;;;;;;5091108;28;20107;-70
2021/04/06 04:35:38;;;;;;;15.77;3.13;;;2.20;99.80;;;;;;5091192;28;20126;-70
2021/04/06 04:38:05;;;;;;;9.15;1.48;;;1.80;99.70;;;;;;5093810;28;20036;-70
2021/04/06 04:40:31;;;;;;;14.65;2.17;;;1.80;99.40;;;;;;5094051;28;20067;-70
2021/04/06 04:42:57;;;;;;;11.25;1.65;;;1.80;99.70;;;;;;5094349;28;20048;-70
2021/04/06 04:45:24;;;;;;;9.82;1.10;;;1.80;99.90;;;;;;5091598;28;20044;-69
2021/04/06 04:47:50;;;;;;;12.15;1.80;;;1.70;99.90;;;;;;5089267;28;20116;-70
2021/04/06 04:50:18;;;;;;;14.85;1.60;;;1.70;99.90;;;;;;5089336;28;20039;-70
2021/04/06 04:52:48;;;;;;;11.55;1.30;;;1.70;99.50;;;;;;5089140;28;20107;-70
2021/04/06 04:55:16;;;;;;;13.82;2.58;;;1.70;99.40;;;;;;5092182;28;20044;-71
2021/04/06 04:57:42;;;;;;;20.98;2.22;;;1.70;99.30;;;;;;5091928;28;20066;-70
2021/04/06 05:00:10;;;;;;;13.18;1.55;;;1.60;99.20;;;;;;5090839;28;20040;-70
2021/04/06 05:02:36;;;;;;;12.80;1.40;;;1.60;98.90;;;;;;5079356;28;20055;-70
2021/04/06 05:05:03;;;;;;;6.68;1.10;;;1.60;99.20;;;;;;5092326;28;20048;-71
2021/04/06 05:07:29;;;;;;;16.00;1.60;;;1.60;99.10;;;;;;5093787;28;20032;-71
2021/04/06 05:09:55;;;;;;;10.38;1.80;;;1.60;98.60;;;;;;5090499;28;20063;-70
2021/04/06 05:12:21;;;;;;;9.07;1.73;;;1.60;98.90;;;;;;5091453;28;20490;-70
2021/04/06 05:14:47;;;;;;;12.38;2.47;;;1.60;98.40;;;;;;5090607;28;20047;-71
2021/04/06 05:17:17;;;;;;;9.45;1.48;;;1.70;98.40;;;;;;5090151;28;20047;-71
2021/04/06 05:19:43;;;;;;;6.18;1.30;;;1.70;98.40;;;;;;5091672;28;20028;-70
2021/04/06 05:22:09;;;;;;;10.50;1.70;;;1.80;98.10;;;;;;5091184;28;20044;-70
2021/04/06 05:24:35;;;;;;;9.65;1.23;;;1.80;98.20;;;;;;5089439;28;20036;-71
2021/04/06 05:27:01;;;;;;;11.93;1.40;;;1.80;97.70;;;;;;5091233;28;20497;-71
2021/04/06 05:29:27;;;;;;;13.35;1.02;;;2.00;97.80;;;;;;5092298;28;20036;-70
2021/04/06 05:31:53;;;;;;;12.40;1.58;;;2.00;97.30;;;;;;5086956;28;20040;-69
2021/04/06 05:34:19;;;;;;;8.75;1.38;;;2.00;97.40;;;;;;5089433;28;20626;-72
2021/04/06 05:36:45;;;;;;;8.05;1.60;;;2.00;97.10;;;;;;5117669;27;20475;-71
2021/04/06 05:39:11;;;;;;;12.70;1.83;;;2.20;97.30;;;;;;5073278;28;20113;-71
2021/04/06 05:41:44;;;;;;;6.63;1.00;;;2.10;96.70;;;;;;5087539;28;20050;-71
2021/04/06 05:44:11;;;;;;;6.60;1.33;;;2.20;96.80;;;;;;5090159;28;20071;-71
2021/04/06 05:46:39;;;;;;;5.75;0.80;;;2.10;97.00;;;;;;5086900;28;20040;-69
2021/04/06 05:49:11;;;;;;;6.80;0.98;;;2.30;96.80;;;;;;5087305;28;20044;-71
2021/04/06 05:51:41;;;;;;;4.97;0.60;;;2.70;97.20;;;;;;5085792;28;20043;-72
2021/04/06 05:54:10;;;;;;;5.25;0.65;;;3.10;95.60;;;;;;5084175;28;21344;-72
2021/04/06 05:56:36;;;;;;;3.70;0.65;;;3.00;97.10;;;;;;5086367;28;20035;-71
2021/04/06 05:59:06;;;;;;;6.25;0.68;;;2.80;96.40;;;;;;5088339;28;20040;-70
2021/04/06 06:01:37;;;;;;;5.47;0.50;;;2.60;97.70;;;;;;5085639;28;20051;-70
2021/04/06 06:04:03;;;;;;;5.03;0.75;;;2.50;97.80;;;;;;5088391;28;20040;-71
2021/04/06 06:06:29;;;;;;;3.47;0.70;;;2.50;98.50;;;;;;5082939;28;20036;-70
2021/04/06 06:08:58;;;;;;;5.15;0.77;;;2.50;98.20;;;;;;5087556;28;20082;-71
2021/04/06 06:11:25;;;;;;;8.13;0.80;;;2.50;98.30;;;;;;5086098;28;20038;-71
2021/04/06 06:13:51;;;;;;;5.75;0.60;;;2.40;98.40;;;;;;5084916;28;20047;-70
2021/04/06 06:16:21;;;;;;;7.07;0.90;;;2.40;98.70;;;;;;5081317;28;20623;-70
2021/04/06 06:19:10;;;;;;;5.85;0.80;;;2.30;98.50;;;;;;5081858;28;20040;-71
2021/04/06 06:21:42;;;;;;;6.63;1.00;;;2.40;98.70;;;;;;5083990;28;20036;-71
2021/04/06 06:24:09;;;;;;;4.82;0.80;;;2.40;98.80;;;;;;5085717;28;20044;-70
2021/04/06 06:26:35;;;;;;;10.13;1.30;;;2.40;99.10;;;;;;5081697;28;20498;-70
2021/04/06 06:29:06;;;;;;;8.07;1.58;;;2.40;99.00;;;;;;5082311;28;20036;-71
2021/04/06 06:31:47;;;;;;;6.50;0.90;;;2.40;98.90;;;;;;5079017;28;20166;-71
2021/04/06 06:34:26;;;;;;;3.42;0.70;;;2.90;99.10;;;;;;5084449;28;20058;-71
2021/04/06 06:37:05;;;;;;;5.38;0.77;;;3.70;97.90;;;;;;5084975;28;20044;-71
2021/04/06 06:39:31;;;;;;;10.38;1.13;;;4.40;96.10;;;;;;5079946;28;20052;-71
2021/04/06 06:42:00;;;;;;;7.45;0.93;;;5.20;96.10;;;;;;5085848;28;20044;-72
2021/04/06 06:44:27;;;;;;;5.93;0.60;;;5.70;94.60;;;;;;5086260;28;20492;-72
2021/04/06 06:47:28;;;;;;;9.45;0.88;;;6.10;93.60;;;;;;5088043;28;20042;-72
2021/04/06 06:49:55;;;;;;;7.57;0.95;;;6.20;92.40;;;;;;5084361;28;20417;-72
2021/04/06 06:52:27;;;;;;;11.20;1.13;;;6.40;93.00;;;;;;5084483;28;20032;-72
2021/04/06 06:55:00;;;;;;;9.48;1.02;;;5.80;93.20;;;;;;5086295;28;20093;-71
2021/04/06 06:57:34;;;;;;;4.90;0.60;;;5.10;93.70;;;;;;5086492;28;20583;-71
2021/04/06 07:00:15;;;;;;;5.47;0.70;;;4.60;94.80;;;;;;5085989;28;20046;-71
2021/04/06 07:02:43;;;;;;;10.13;1.00;;;4.20;95.50;;;;;;5084570;28;20048;-71
2021/04/06 07:05:12;;;;;;;7.07;0.90;;;4.00;96.40;;;;;;5084935;28;20040;-71
2021/04/06 07:08:05;;;;;;;8.35;1.30;;;3.80;96.60;;;;;;5087701;28;20044;-71
2021/04/06 07:10:37;;;;;;;8.23;1.42;;;3.70;97.50;;;;;;5082028;28;20048;-71
2021/04/06 07:13:07;;;;;;;6.60;0.95;;;3.60;97.60;;;;;;5083318;28;20042;-71
2021/04/06 07:15:36;;;;;;;4.35;0.80;;;3.50;97.60;;;;;;5087016;28;20131;-71
2021/04/06 07:18:12;;;;;;;4.65;1.13;;;3.40;97.50;;;;;;5086264;28;20045;-71
2021/04/06 07:20:41;;;;;;;12.50;1.20;;;3.30;97.90;;;;;;5086749;28;20048;-71
2021/04/06 07:23:13;;;;;;;4.57;1.10;;;3.30;98.20;;;;;;5089769;28;20440;-71
2021/04/06 07:25:42;;;;;;;8.52;1.20;;;3.20;98.20;;;;;;5088529;28;20051;-71
2021/04/06 07:28:09;;;;;;;10.15;1.08;;;3.10;98.50;;;;;;5091128;28;20044;-71
2021/04/06 07:30:36;;;;;;;9.73;1.60;;;3.00;98.90;;;;;;5091668;28;20058;-71
2021/04/06 07:33:01;;;;;;;8.90;1.20;;;3.00;99.00;;;;;;5091365;28;20044;-71
2021/04/06 07:35:28;;;;;;;6.72;1.20;;;2.80;98.90;;;;;;5087246;28;20052;-71
2021/04/06 07:37:54;;;;;;;6.18;1.10;;;2.80;98.90;;;;;;5088565;28;20059;-71
2021/04/06 07:40:23;;;;;;;9.73;1.02;;;2.90;99.10;;;;;;5089848;28;20036;-71
2021/04/06 07:42:49;;;;;;;7.03;1.08;;;3.10;99.20;;;;;;5093691;28;20043;-71
2021/04/06 07:45:24;;;;;;;8.35;1.00;;;3.20;98.90;;;;;;5091513;28;20087;-71
2021/04/06 07:47:51;;;;;;;8.95;1.38;;;3.50;98.70;;;;;;5090479;28;20040;-71
2021/04/06 07:50:50;;;;;;;7.88;1.58;;;4.10;98.60;;;;;;5092525;28;20036;-71
2021/04/06 07:53:28;;;;;;;7.47;0.88;;;3.60;98.30;;;;;;5083190;28;20055;-71
2021/04/06 07:55:59;;;;;;;4.28;0.82;;;3.40;98.20;;;;;;5088303;28;20153;-71
2021/04/06 07:58:48;;;;;;;10.50;1.23;;;3.40;98.50;;;;;;5091185;28;20051;-71
2021/04/06 08:01:17;;;;;;;5.28;0.80;;;3.40;98.70;;;;;;5085340;28;20051;-71
2021/04/06 08:03:49;;;;;;;3.90;0.77;;;3.30;98.60;;;;;;5091802;28;20054;-70
2021/04/06 08:06:22;;;;;;;5.47;0.70;;;3.20;98.70;;;;;;5092236;28;20485;-71
2021/04/06 08:08:48;;;;;;;6.00;0.88;;;3.20;98.80;;;;;;5089610;28;20035;-71
2021/04/06 08:11:14;;;;;;;7.28;1.08;;;3.30;99.10;;;;;;5090907;28;20044;-70
2021/04/06 08:13:42;;;;;;;6.45;0.70;;;3.50;98.80;;;;;;5085463;28;20119;-70
2021/04/06 08:16:12;;;;;;;5.68;0.50;;;3.50;98.10;;;;;;5083176;28;20044;-71
2021/04/06 08:18:52;;;;;;;3.88;0.88;;;3.80;97.80;;;;;;5083582;28;20043;-71
2021/04/06 08:21:18;;;;;;;5.60;0.70;;;4.10;97.50;;;;;;5086020;28;20057;-71
2021/04/06 08:23:47;;;;;;;5.28;0.68;;;4.30;97.10;;;;;;5085443;28;20767;-71
2021/04/06 08:26:29;;;;;;;7.47;1.08;;;4.30;97.20;;;;;;5088636;28;21593;-71
2021/04/06 08:28:56;;;;;;;5.65;0.80;;;4.00;96.90;;;;;;5089216;28;20119;-71
2021/04/06 08:31:26;;;;;;;6.53;0.73;;;3.90;96.90;;;;;;5087012;28;20032;-70
2021/04/06 08:33:52;;;;;;;4.97;0.82;;;3.70;97.20;;;;;;5087653;28;20039;-70
2021/04/06 08:36:28;;;;;;;5.47;0.95;;;3.50;98.10;;;;;;5083331;28;20403;-70
2021/04/06 08:38:57;;;;;;;6.63;0.85;;;3.50;98.40;;;;;;5084768;28;20118;-70
2021/04/06 08:41:23;;;;;;;4.53;0.70;;;3.30;99.00;;;;;;5086295;28;20043;-70
2021/04/06 08:43:50;;;;;;;7.38;0.95;;;3.30;99.10;;;;;;5086589;28;20040;-70
2021/04/06 08:46:40;;;;;;;6.00;1.05;;;3.30;99.30;;;;;;5087108;28;20036;-70
2021/04/06 08:49:16;;;;;;;5.53;1.45;;;3.40;99.20;;;;;;5083984;28;20036;-70
2021/04/06 08:51:44;;;;;;;7.25;0.75;;;3.60;99.60;;;;;;5082517;28;20036;-70
2021/04/06 08:54:11;;;;;;;5.82;1.60;;;3.80;99.50;;;;;;5080259;28;20389;-70
2021/04/06 08:56:40;;;;;;;7.20;0.95;;;4.30;99.50;;;;;;5085167;28;20072;-70
2021/04/06 08:59:32;;;;;;;3.67;0.88;;;4.60;99.10;;;;;;5087788;28;20043;-70
2021/04/06 09:02:04;;;;;;;4.40;0.90;;;4.70;97.60;;;;;;5079956;28;20048;-70
2021/04/06 09:04:36;;;;;;;3.88;0.60;;;4.70;97.40;;;;;;5078705;28;20166;-70
2021/04/06 09:07:21;;;;;;;6.10;0.95;;;4.50;96.70;;;;;;5079671;28;20416;-70
2021/04/06 09:09:51;;;;;;;8.63;0.80;;;4.50;97.20;;;;;;5081851;28;20393;-70
2021/04/06 09:12:18;;;;;;;3.03;0.63;;;4.40;97.20;;;;;;5086491;28;20032;-70
2021/04/06 09:14:45;;;;;;;6.05;0.73;;;4.50;98.00;;;;;;5086289;28;20047;-70
2021/04/06 09:17:11;;;;;;;9.68;1.00;;;4.80;98.20;;;;;;5082019;28;20059;-70
2021/04/06 09:19:39;;;;;;;6.00;0.90;;;4.80;97.60;;;;;;5088057;28;20080;-70
2021/04/06 09:22:10;;;;;;;6.43;0.88;;;4.70;96.30;;;;;;5082783;28;20036;-70
2021/04/06 09:24:37;;;;;;;3.88;0.73;;;4.70;97.50;;;;;;5085820;28;20074;-70
2021/04/06 09:27:04;;;;;;;3.92;0.85;;;4.50;96.90;;;;;;5084205;28;20090;-70
2021/04/06 09:29:42;;;;;;;5.72;1.05;;;4.20;96.70;;;;;;5084249;28;20087;-70
2021/04/06 09:32:11;;;;;;;4.22;0.65;;;3.90;97.10;;;;;;5082410;28;20075;-70
2021/04/06 09:34:39;;;;;;;5.60;0.70;;;3.70;97.20;;;;;;5085353;28;20054;-70
2021/04/06 09:37:12;;;;;;;3.83;0.50;;;3.50;97.90;;;;;;5093524;28;20044;-70
2021/04/06 09:39:42;;;;;;;3.28;0.80;;;3.40;98.60;;;;;;5083286;28;20125;-70
2021/04/06 09:42:09;;;;;;;5.85;0.63;;;3.40;99.00;;;;;;5084983;28;20093;-70
2021/04/06 09:44:38;;;;;;;4.72;0.75;;;3.50;99.30;;;;;;5085874;28;20043;-70
2021/04/06 09:47:08;;;;;;;7.90;0.90;;;3.60;99.60;;;;;;5086330;28;20036;-69
2021/04/06 09:49:36;;;;;;;7.53;0.70;;;3.70;99.90;;;;;;5083005;28;20097;-70
2021/04/06 09:52:06;;;;;;;8.38;0.63;;;4.00;99.90;;;;;;5080593;28;20486;-70
2021/04/06 09:54:35;;;;;;;6.25;1.00;;;4.20;99.90;;;;;;5081539;28;20051;-70
2021/04/06 09:57:10;;;;;;;6.43;0.63;;;4.50;99.90;;;;;;5080724;28;20428;-70
2021/04/06 09:59:37;;;;;;;2.47;0.40;;;4.80;99.90;;;;;;5087779;28;20046;-71
2021/04/06 10:02:04;;;;;;;4.53;0.52;;;4.90;98.10;;;;;;5082000;28;20047;-71
2021/04/06 10:04:41;;;;;;;2.63;0.32;;;5.00;97.00;;;;;;5083636;28;20814;-70
2021/04/06 10:07:08;;;;;;;5.53;0.70;;;5.20;96.60;;;;;;5081171;28;20028;-70
2021/04/06 10:09:35;;;;;;;4.43;0.60;;;5.30;96.80;;;;;;5083902;28;20054;-70
2021/04/06 10:12:02;;;;;;;6.90;0.70;;;5.40;96.10;;;;;;5081532;28;20035;-70
2021/04/06 10:14:28;;;;;;;7.28;1.13;;;5.40;95.50;;;;;;5079401;28;20394;-70
2021/04/06 10:17:00;;;;;;;9.30;1.17;;;5.60;96.60;;;;;;5084974;28;20047;-69
2021/04/06 10:19:27;;;;;;;4.68;0.50;;;5.90;97.30;;;;;;5088707;28;20104;-70
2021/04/06 10:22:03;;;;;;;5.10;1.38;;;6.10;96.30;;;;;;5088717;28;20036;-70
2021/04/06 10:24:31;;;;;;;5.68;1.10;;;6.30;96.40;;;;;;5087177;28;20040;-70
2021/04/06 10:27:26;;;;;;;10.45;1.70;;;6.40;94.80;;;;;;5088986;28;20048;-69
2021/04/06 10:29:56;;;;;;;11.10;1.00;;;6.40;95.10;;;;;;5089055;28;20032;-71
2021/04/06 10:32:31;;;;;;;10.25;1.27;;;6.60;95.00;;;;;;5103623;28;20036;-70
2021/04/06 10:35:07;;;;;;;9.40;1.53;;;6.70;95.00;;;;;;5091729;28;20300;-71
2021/04/06 10:37:43;;;;;;;9.85;1.00;;;6.90;94.70;;;;;;5089172;28;20413;-71
2021/04/06 10:40:35;;;;;;;11.25;1.33;;;7.00;94.00;;;;;;5088756;28;20086;-71
2021/04/06 10:43:08;;;;;;;8.23;1.05;;;7.00;94.00;;;;;;5090890;28;20040;-71
2021/04/06 10:45:37;;;;;;;8.75;0.95;;;7.10;94.30;;;;;;5089954;28;20055;-71
2021/04/06 10:48:08;;;;;;;7.80;1.20;;;7.20;93.50;;;;;;5090699;28;20043;-71
2021/04/06 10:50:35;;;;;;;9.85;1.58;;;7.30;91.70;;;;;;5089392;28;20036;-71
2021/04/06 10:53:16;;;;;;;10.73;1.42;;;7.40;91.40;;;;;;5090175;28;20259;-71
2021/04/06 10:55:42;;;;;;;7.68;1.27;;;7.40;91.10;;;;;;5091053;28;20048;-71
2021/04/06 10:58:08;;;;;;;7.22;1.20;;;7.60;91.70;;;;;;5091584;28;20517;-71
2021/04/06 11:00:36;;;;;;;7.15;1.15;;;7.70;86.50;;;;;;5094404;28;20124;-71
2021/04/06 11:03:10;;;;;;;10.35;1.65;;;7.70;88.90;;;;;;5092399;28;20052;-71
2021/04/06 11:05:38;;;;;;;6.15;1.00;;;7.90;90.80;;;;;;5093983;28;20054;-71
2021/04/06 11:08:26;;;;;;;9.32;2.97;;;7.90;85.20;;;;;;5095459;28;20081;-71
2021/04/06 11:11:13;;;;;;;13.52;2.70;;;7.10;89.60;;;;;;5096491;28;20107;-70
2021/04/06 11:13:38;;;;;;;9.52;1.25;;;6.30;92.00;;;;;;5094620;28;20044;-71
2021/04/06 11:16:05;;;;;;;7.18;1.20;;;5.80;93.50;;;;;;5095203;28;20051;-71
2021/04/06 11:18:31;;;;;;;11.88;1.45;;;5.40;94.50;;;;;;5092529;28;20158;-71
2021/04/06 11:20:57;;;;;;;12.27;1.80;;;5.20;95.60;;;;;;5087610;28;20069;-71
2021/04/06 11:23:22;;;;;;;11.23;1.65;;;5.10;95.90;;;;;;5089547;28;20466;-71
2021/04/06 11:25:48;;;;;;;8.60;1.10;;;5.10;95.00;;;;;;5089365;28;20036;-71
2021/04/06 11:28:14;;;;;;;7.53;1.48;;;5.20;95.90;;;;;;5089598;28;20557;-71
2021/04/06 11:30:40;;;;;;;12.05;1.50;;;5.50;95.40;;;;;;5089940;28;20530;-71
2021/04/06 11:33:06;;;;;;;14.80;2.30;;;5.80;94.70;;;;;;5093211;28;20039;-71
2021/04/06 11:35:32;;;;;;;9.77;0.90;;;5.90;93.30;;;;;;5091244;28;20044;-71
2021/04/06 11:37:59;;;;;;;6.32;0.85;;;6.30;93.80;;;;;;5090583;28;20036;-71
2021/04/06 11:40:26;;;;;;;5.57;0.73;;;6.50;93.10;;;;;;5090593;28;20058;-72
2021/04/06 11:42:53;;;;;;;7.85;1.23;;;6.70;92.00;;;;;;5093261;28;20043;-71
2021/04/06 11:45:22;;;;;;;5.88;0.77;;;6.60;90.80;;;;;;5094543;28;20040;-71
2021/04/06 11:47:50;;;;;;;8.98;2.58;;;6.60;90.70;;;;;;5092833;28;20055;-71
2021/04/06 11:50:16;;;;;;;6.70;0.95;;;6.50;91.90;;;;;;5093165;28;21282;-71
2021/04/06 11:52:42;;;;;;;7.50;0.85;;;6.30;88.50;;;;;;5096181;28;20044;-71
2021/04/06 11:55:08;;;;;;;12.90;2.05;;;6.20;90.60;;;;;;5095867;28;20062;-72
2021/04/06 11:57:34;;;;;;;9.23;0.98;;;6.10;89.30;;;;;;5096598;28;20502;-71
2021/04/06 12:00:00;;;;;;;9.00;1.48;;;6.10;90.10;;;;;;5093339;28;20056;-72
2021/04/06 12:02:25;;;;;;;9.98;1.75;;;6.10;90.30;;;;;;5069707;28;20052;-71
2021/04/06 12:04:51;;;;;;;9.48;1.35;;;6.10;91.30;;;;;;5091849;28;20202;-71
2021/04/06 12:07:17;;;;;;;9.15;1.00;;;6.10;91.30;;;;;;5093682;28;20043;-71
2021/04/06 12:09:43;;;;;;;7.38;1.75;;;6.00;91.40;;;;;;5090249;28;20427;-71
2021/04/06 12:12:09;;;;;;;6.10;1.02;;;6.00;91.70;;;;;;5087350;28;20047;-71
2021/04/06 12:14:35;;;;;;;9.25;1.38;;;5.90;92.40;;;;;;5088000;28;20031;-71
2021/04/06 12:17:01;;;;;;;9.32;1.25;;;6.10;92.70;;;;;;5089092;28;20028;-71
2021/04/06 12:19:27;;;;;;;5.10;0.70;;;5.80;92.70;;;;;;5092294;28;20524;-71
2021/04/06 12:21:52;;;;;;;6.53;0.80;;;5.50;92.00;;;;;;5088980;28;20125;-71
2021/04/06 12:24:18;;;;;;;5.90;0.75;;;5.20;93.50;;;;;;5089179;28;20047;-71
2021/04/06 12:26:44;;;;;;;10.68;0.80;;;4.90;93.70;;;;;;5088169;28;20070;-71
2021/04/06 12:29:10;;;;;;;3.80;0.70;;;4.80;93.70;;;;;;5091772;28;20040;-71
2021/04/06 12:31:36;;;;;;;8.25;0.75;;;5.00;94.50;;;;;;5091992;28;20517;-71
2021/04/06 12:34:01;;;;;;;7.15;0.98;;;4.90;94.70;;;;;;5090756;28;20110;-71
2021/04/06 12:36:27;;;;;;;6.22;0.95;;;4.90;94.90;;;;;;5090589;28;20064;-71
2021/04/06 12:38:53;;;;;;;14.40;1.30;;;5.20;96.80;;;;;;5087125;28;20044;-71
2021/04/06 12:41:19;;;;;;;7.70;1.17;;;5.30;95.60;;;;;;5088443;28;20028;-71
2021/04/06 12:43:45;;;;;;;11.32;1.45;;;5.30;94.40;;;;;;5087578;28;20040;-72
2021/04/06 12:46:11;;;;;;;13.73;1.63;;;5.30;93.70;;;;;;5092065;28;20038;-71
2021/04/06 12:48:37;;;;;;;9.70;1.30;;;5.50;95.10;;;;;;5089235;28;20131;-71
2021/04/06 12:51:02;;;;;;;9.30;1.70;;;5.80;94.60;;;;;;5087592;28;20939;-72
2021/04/06 12:53:28;;;;;;;10.30;0.93;;;5.90;94.20;;;;;;5093719;28;20077;-72
2021/04/06 12:55:55;;;;;;;6.30;0.98;;;6.10;94.50;;;;;;5093583;28;20051;-72
2021/04/06 12:58:23;;;;;;;8.93;0.95;;;6.30;95.10;;;;;;5090553;28;20051;-72
2021/04/06 13:00:49;;;;;;;9.40;1.10;;;6.60;93.60;;;;;;5092488;28;20071;-69
2021/04/06 13:03:15;;;;;;;9.70;1.35;;;6.80;91.30;;;;;;5096330;28;20039;-71
2021/04/06 13:05:40;;;;;;;8.25;0.75;;;6.90;88.60;;;;;;5094364;28;20092;-71
2021/04/06 13:08:11;;;;;;;9.77;1.88;;;7.10;88.70;;;;;;5089784;28;20083;-71